Time;durP1;ratioP1;P1;durP2;ratioP2;P2;SDS_P1;SDS_P2;PMS_P1;PMS_P2;Temp;Humidity;BMP_temperature;BMP_pressure;BME280_temperature;BME280_humidity;BME280_pressure;Samples;Min_cycle;Max_cycle;Signal;HPM_P1;HPM_P2
2022/10/27 00:00:09;;;;;;;10.47;5.60;;;;;;;12.36;100.00;98887.41;5013912;28;20239;-70
2022/10/27 00:02:36;;;;;;;9.10;5.47;;;;;;;12.35;100.00;98893.75;5014029;28;20669;-70
2022/10/27 00:05:02;;;;;;;13.13;6.27;;;;;;;12.37;100.00;98891.72;5013382;28;20544;-70
2022/10/27 00:07:28;;;;;;;10.33;6.23;;;;;;;12.37;100.00;98883.72;5014225;28;20206;-70
2022/10/27 00:09:55;;;;;;;12.63;5.90;;;;;;;12.36;100.00;98889.25;5014133;28;20233;-70
2022/10/27 00:12:21;;;;;;;9.50;5.90;;;;;;;12.36;100.00;98895.41;5014158;28;20213;-70
2022/10/27 00:14:47;;;;;;;9.37;5.70;;;;;;;12.35;100.00;98896.41;5013831;28;20248;-70
2022/10/27 00:17:14;;;;;;;9.40;5.43;;;;;;;12.35;100.00;98896.41;5014121;28;20195;-70
2022/10/27 00:19:40;;;;;;;8.67;5.67;;;;;;;12.36;100.00;98894.56;5013989;28;20570;-71
2022/10/27 00:22:06;;;;;;;9.47;5.70;;;;;;;12.32;100.00;98890.69;5014039;28;20220;-70
2022/10/27 00:24:33;;;;;;;13.27;6.63;;;;;;;12.31;100.00;98900.56;5013991;28;20201;-70
2022/10/27 00:26:59;;;;;;;9.93;6.03;;;;;;;12.23;100.00;98890.13;5013919;28;20205;-70
2022/10/27 00:29:25;;;;;;;9.53;5.80;;;;;;;12.23;100.00;98892.78;5013907;28;20205;-70
2022/10/27 00:31:52;;;;;;;10.30;6.17;;;;;;;12.20;100.00;98895.84;5013517;28;20237;-70
2022/10/27 00:34:18;;;;;;;8.97;5.87;;;;;;;12.14;100.00;98899.34;5014333;28;20240;-70
2022/10/27 00:36:44;;;;;;;12.80;5.97;;;;;;;12.14;100.00;98898.53;5013464;28;20215;-70
2022/10/27 00:39:11;;;;;;;10.93;5.90;;;;;;;12.12;100.00;98904.06;5013421;28;20213;-70
2022/10/27 00:41:41;;;;;;;8.17;5.43;;;;;;;12.12;100.00;98909.38;5013735;28;20588;-70
2022/10/27 00:44:27;;;;;;;12.43;5.50;;;;;;;12.06;100.00;98909.41;5013511;28;20185;-70
2022/10/27 00:46:54;;;;;;;11.23;5.90;;;;;;;12.09;100.00;98917.81;5013455;28;20675;-70
2022/10/27 00:49:27;;;;;;;10.50;6.10;;;;;;;12.04;100.00;98920.28;5013405;28;20783;-70
2022/10/27 00:51:59;;;;;;;10.53;5.70;;;;;;;11.99;100.00;98920.09;5013354;28;20225;-70
2022/10/27 00:54:29;;;;;;;14.00;6.20;;;;;;;12.00;100.00;98911.06;5014466;28;20214;-70
2022/10/27 00:56:57;;;;;;;10.70;5.93;;;;;;;12.02;100.00;98911.66;5014782;28;20211;-70
2022/10/27 00:59:24;;;;;;;12.63;5.87;;;;;;;12.01;100.00;98910.03;5013671;28;20214;-70
2022/10/27 01:01:53;;;;;;;11.33;6.00;;;;;;;11.91;100.00;98906.97;5013517;28;20236;-70
2022/10/27 01:04:34;;;;;;;11.70;6.50;;;;;;;11.89;100.00;98908.22;5012418;28;20215;-70
2022/10/27 01:07:01;;;;;;;9.40;6.10;;;;;;;11.92;100.00;98905.94;5013297;28;20189;-70
2022/10/27 01:09:29;;;;;;;13.87;6.67;;;;;;;11.91;100.00;98906.97;5013564;28;20259;-70
2022/10/27 01:11:55;;;;;;;12.20;6.13;;;;;;;11.95;100.00;98915.38;5013439;28;20243;-70
2022/10/27 01:14:22;;;;;;;12.90;7.30;;;;;;;11.95;100.00;98910.03;5013394;28;20239;-70
2022/10/27 01:17:11;;;;;;;11.80;6.40;;;;;;;11.91;100.00;98904.31;5015338;28;20696;-70
2022/10/27 01:20:02;;;;;;;11.70;6.30;;;;;;;11.87;100.00;98916.41;5017881;28;20198;-70
2022/10/27 01:23:08;;;;;;;11.10;6.00;;;;;;;11.77;100.00;98908.03;5016911;28;20565;-70
2022/10/27 01:25:41;;;;;;;11.97;6.30;;;;;;;11.72;100.00;98907.00;5006807;28;20713;-70
2022/10/27 01:28:29;;;;;;;12.03;6.20;;;;;;;11.67;100.00;98899.59;5017196;28;20197;-70
2022/10/27 01:31:03;;;;;;;11.97;6.60;;;;;;;11.63;100.00;98887.75;5017078;28;20230;-70
2022/10/27 01:33:40;;;;;;;11.30;6.63;;;;;;;11.65;100.00;98893.66;5017063;28;20216;-70
2022/10/27 01:36:24;;;;;;;12.83;6.60;;;;;;;11.68;100.00;98898.59;5015596;28;20643;-70
2022/10/27 01:39:05;;;;;;;7.67;6.57;;;;;;;11.63;100.00;98903.72;5016757;28;20652;-70
2022/10/27 01:41:57;;;;;;;14.50;7.40;;;;;;;11.60;100.00;98904.13;5016652;28;20714;-70
2022/10/27 01:44:47;;;;;;;10.93;7.03;;;;;;;11.63;100.00;98911.72;5010886;28;20208;-70
2022/10/27 01:47:15;;;;;;;14.20;8.20;;;;;;;11.57;100.00;98909.81;5015726;28;20558;-70
2022/10/27 01:49:42;;;;;;;12.73;7.13;;;;;;;11.55;100.00;98911.88;5016413;28;20208;-71
2022/10/27 01:52:44;;;;;;;10.73;6.80;;;;;;;11.55;100.00;98911.03;5016780;28;20206;-70
2022/10/27 01:55:13;;;;;;;10.23;6.60;;;;;;;11.49;100.00;98907.34;5016619;28;20228;-70
2022/10/27 01:57:55;;;;;;;10.17;6.73;;;;;;;11.49;100.00;98902.03;5015164;28;20227;-70
2022/10/27 02:00:22;;;;;;;13.00;7.70;;;;;;;11.50;100.00;98900.19;5016530;28;20238;-70
2022/10/27 02:03:03;;;;;;;10.93;6.70;;;;;;;11.48;100.00;98900.38;5016580;28;20213;-70
2022/10/27 02:05:44;;;;;;;11.30;6.13;;;;;;;11.46;100.00;98894.47;5015419;28;20196;-70
2022/10/27 02:08:38;;;;;;;12.30;6.50;;;;;;;11.49;100.00;98893.22;5016549;28;20195;-70
2022/10/27 02:11:07;;;;;;;11.67;7.33;;;;;;;11.48;100.00;98888.94;5016386;28;20224;-70
2022/10/27 02:13:38;;;;;;;10.43;6.63;;;;;;;11.45;100.00;98889.34;5016305;28;20233;-70
2022/10/27 02:16:11;;;;;;;10.87;7.40;;;;;;;11.43;100.00;98883.41;5016075;28;20628;-70
2022/10/27 02:18:48;;;;;;;14.60;6.83;;;;;;;11.44;100.00;98888.50;5016023;28;20659;-70
2022/10/27 02:21:16;;;;;;;10.23;6.83;;;;;;;11.45;100.00;98892.81;5016197;28;20229;-70
2022/10/27 02:23:43;;;;;;;12.60;7.30;;;;;;;11.49;100.00;98893.22;5016149;28;20212;-70
2022/10/27 02:26:26;;;;;;;16.20;7.27;;;;;;;11.42;100.00;98900.38;5015794;28;20577;-70
2022/10/27 02:29:36;;;;;;;16.27;6.30;;;;;;;11.37;100.00;98909.00;5015103;28;20203;-70
2022/10/27 02:32:06;;;;;;;11.50;6.13;;;;;;;11.37;100.00;98902.84;4994099;28;20229;-70
2022/10/27 02:34:35;;;;;;;10.80;6.17;;;;;;;11.32;100.00;98903.47;4993991;28;20235;-70
2022/10/27 02:37:04;;;;;;;14.63;6.33;;;;;;;11.22;100.00;98897.72;5005023;28;20206;-70
2022/10/27 02:39:30;;;;;;;12.20;5.90;;;;;;;11.25;100.00;98899.16;5015505;28;20213;-70
2022/10/27 02:41:57;;;;;;;11.20;6.93;;;;;;;11.28;100.00;98903.03;5015451;28;20712;-70
2022/10/27 02:44:23;;;;;;;8.83;6.40;;;;;;;11.26;100.00;98896.25;5015734;28;20207;-70
2022/10/27 02:46:49;;;;;;;11.60;6.33;;;;;;;11.26;100.00;98898.13;5015727;28;20230;-70
2022/10/27 02:49:16;;;;;;;14.90;6.30;;;;;;;11.23;100.00;98891.38;5015651;28;20213;-70
2022/10/27 02:51:42;;;;;;;10.23;6.70;;;;;;;11.27;100.00;98897.94;5015457;28;20311;-70
2022/10/27 02:54:08;;;;;;;10.40;6.77;;;;;;;11.28;100.00;98894.25;5015988;28;20226;-70
2022/10/27 02:56:35;;;;;;;12.93;6.80;;;;;;;11.28;100.00;98897.69;5016280;28;20219;-70
2022/10/27 02:59:01;;;;;;;11.87;6.97;;;;;;;11.26;100.00;98901.59;5015149;28;20209;-70
2022/10/27 03:01:27;;;;;;;8.97;6.67;;;;;;;11.23;100.00;98897.50;5015003;28;20709;-70
2022/10/27 03:03:54;;;;;;;13.10;6.90;;;;;;;11.27;100.00;98903.25;5015283;28;20210;-70
2022/10/27 03:06:20;;;;;;;12.63;7.10;;;;;;;11.27;100.00;98900.59;5015245;28;20209;-70
2022/10/27 03:08:46;;;;;;;10.00;6.57;;;;;;;11.25;100.00;98897.28;5015158;28;20212;-70
2022/10/27 03:11:13;;;;;;;11.83;6.60;;;;;;;11.20;100.00;98891.75;5015115;28;20225;-70
2022/10/27 03:13:39;;;;;;;11.90;6.67;;;;;;;11.18;100.00;98898.31;5015082;28;20209;-70
2022/10/27 03:16:06;;;;;;;10.27;6.80;;;;;;;11.14;100.00;98895.25;5014656;28;20226;-70
2022/10/27 03:18:32;;;;;;;11.70;6.73;;;;;;;11.16;100.00;98892.38;5015114;28;20208;-70
2022/10/27 03:20:59;;;;;;;11.20;6.93;;;;;;;11.13;100.00;98896.28;5015392;28;20224;-70
2022/10/27 03:23:25;;;;;;;11.83;6.67;;;;;;;11.07;100.00;98891.72;5014966;28;20223;-70
2022/10/27 03:25:51;;;;;;;12.07;6.47;;;;;;;11.04;100.00;98894.81;5014507;28;20667;-70
2022/10/27 03:28:19;;;;;;;12.40;5.93;;;;;;;10.98;100.00;98896.44;5015127;28;20295;-70
2022/10/27 03:30:45;;;;;;;10.73;6.57;;;;;;;11.03;100.00;98895.81;5014862;28;20242;-70
2022/10/27 03:33:11;;;;;;;11.47;6.40;;;;;;;11.02;100.00;98894.19;5014516;28;20216;-70
2022/10/27 03:35:38;;;;;;;13.83;6.60;;;;;;;11.00;100.00;98901.56;5014066;28;20218;-70
2022/10/27 03:38:04;;;;;;;8.10;6.67;;;;;;;11.04;100.00;98894.81;5014549;28;20203;-70
2022/10/27 03:40:30;;;;;;;15.13;7.90;;;;;;;11.05;100.00;98899.09;5014337;28;20223;-70
2022/10/27 03:42:57;;;;;;;11.07;7.87;;;;;;;11.05;100.00;98888.47;5014514;28;20609;-70
2022/10/27 03:45:28;;;;;;;10.63;7.80;;;;;;;11.05;100.00;98894.59;5014218;28;20207;-70
2022/10/27 03:48:11;;;;;;;11.73;7.77;;;;;;;11.01;100.00;98895.22;5015367;28;20192;-70
2022/10/27 03:50:38;;;;;;;13.53;7.60;;;;;;;10.98;100.00;98896.44;5014061;28;20591;-70
2022/10/27 03:53:05;;;;;;;14.40;7.80;;;;;;;10.99;100.00;98891.91;5014444;28;20202;-70
2022/10/27 03:55:33;;;;;;;9.50;7.70;;;;;;;10.98;100.00;98888.44;5014323;28;20231;-70
2022/10/27 03:57:59;;;;;;;11.23;7.63;;;;;;;10.95;100.00;98885.38;5014404;28;20261;-70
2022/10/27 04:00:27;;;;;;;10.63;7.00;;;;;;;10.89;100.00;98884.34;5013995;28;20231;-70
2022/10/27 04:02:54;;;;;;;16.27;7.43;;;;;;;10.87;100.00;98890.88;5014047;28;20211;-70
2022/10/27 04:05:22;;;;;;;10.23;6.63;;;;;;;10.83;100.00;98902.94;5013810;28;20205;-70
2022/10/27 04:07:48;;;;;;;12.77;7.20;;;;;;;10.81;100.00;98891.66;5013966;28;20219;-70
2022/10/27 04:10:15;;;;;;;9.83;7.23;;;;;;;10.83;100.00;98895.78;5013944;28;20257;-70
2022/10/27 04:12:55;;;;;;;13.27;7.30;;;;;;;10.84;100.00;98902.75;5014110;28;20568;-70
2022/10/27 04:15:24;;;;;;;14.00;7.60;;;;;;;10.83;100.00;98895.78;5013816;28;20223;-70
2022/10/27 04:17:55;;;;;;;14.17;7.50;;;;;;;10.85;100.00;98898.22;5013833;28;20219;-70
2022/10/27 04:20:22;;;;;;;11.53;7.10;;;;;;;10.85;100.00;98896.38;5013570;28;20226;-70
2022/10/27 04:22:48;;;;;;;11.00;7.23;;;;;;;10.78;100.00;98900.06;5013322;28;20211;-70
2022/10/27 04:25:14;;;;;;;12.07;6.90;;;;;;;10.75;100.00;98903.09;5013479;28;20560;-70
2022/10/27 04:27:41;;;;;;;9.37;6.23;;;;;;;10.71;100.00;98902.69;5013718;28;20204;-70
2022/10/27 04:30:08;;;;;;;11.97;6.73;;;;;;;10.72;100.00;98898.16;5013650;28;20232;-70
2022/10/27 04:32:34;;;;;;;9.83;6.77;;;;;;;10.69;100.00;98902.06;5013947;28;20680;-70
2022/10/27 04:35:01;;;;;;;9.67;7.20;;;;;;;10.62;100.00;98897.72;5013467;28;20582;-70
2022/10/27 04:37:27;;;;;;;13.00;7.67;;;;;;;10.63;100.00;98897.53;5013563;28;20233;-70
2022/10/27 04:39:53;;;;;;;11.10;7.00;;;;;;;10.72;100.00;98900.81;5013107;28;20646;-70
2022/10/27 04:42:20;;;;;;;10.33;6.30;;;;;;;10.71;100.00;98905.34;5013082;28;20552;-70
2022/10/27 04:44:46;;;;;;;10.10;6.60;;;;;;;10.71;100.00;98908.00;5013423;28;20205;-70
2022/10/27 04:47:12;;;;;;;10.03;6.30;;;;;;;10.69;100.00;98914.53;5013406;28;20235;-70
2022/10/27 04:49:39;;;;;;;13.00;6.80;;;;;;;10.64;100.00;98906.34;5013460;28;20209;-70
2022/10/27 04:52:05;;;;;;;10.10;6.17;;;;;;;10.64;100.00;98904.50;5018954;28;20206;-70
2022/10/27 04:54:31;;;;;;;9.97;7.43;;;;;;;10.62;100.00;98900.38;5019814;28;20223;-70
2022/10/27 04:56:58;;;;;;;11.87;7.27;;;;;;;10.65;100.00;98905.31;5019682;28;20674;-70
2022/10/27 04:59:24;;;;;;;10.47;6.83;;;;;;;10.66;100.00;98904.28;5019828;28;20206;-70
2022/10/27 05:01:51;;;;;;;13.60;7.33;;;;;;;10.64;100.00;98912.47;5019742;28;20230;-70
2022/10/27 05:04:17;;;;;;;11.77;6.80;;;;;;;10.64;100.00;98911.66;5019727;28;20206;-70
2022/10/27 05:06:43;;;;;;;14.90;7.67;;;;;;;10.61;100.00;98906.72;5019588;28;20213;-70
2022/10/27 05:09:10;;;;;;;11.87;7.40;;;;;;;10.65;100.00;98911.47;5019833;28;20214;-70
2022/10/27 05:11:36;;;;;;;15.30;7.97;;;;;;;10.66;100.00;98905.13;5019544;28;20226;-70
2022/10/27 05:14:02;;;;;;;10.90;8.20;;;;;;;10.68;100.00;98903.06;5019520;28;20207;-70
2022/10/27 05:16:29;;;;;;;11.77;7.37;;;;;;;10.66;100.00;98906.97;5019370;28;20214;-70
2022/10/27 05:18:55;;;;;;;12.73;7.63;;;;;;;10.60;100.00;98897.91;5019462;28;20206;-70
2022/10/27 05:21:21;;;;;;;10.67;6.80;;;;;;;10.58;100.00;98897.31;5019223;28;20226;-70
2022/10/27 05:23:48;;;;;;;15.40;6.63;;;;;;;10.60;100.00;98897.13;5018412;28;20214;-70
2022/10/27 05:26:14;;;;;;;16.07;7.43;;;;;;;10.53;100.00;98898.91;5018777;28;20198;-70
2022/10/27 05:28:42;;;;;;;11.47;6.97;;;;;;;10.53;100.00;98909.56;5019388;28;20221;-70
2022/10/27 05:31:09;;;;;;;11.03;7.30;;;;;;;10.51;100.00;98901.78;5019083;28;20732;-70
2022/10/27 05:33:35;;;;;;;14.87;7.40;;;;;;;10.47;100.00;98903.22;5019147;28;20689;-70
2022/10/27 05:36:02;;;;;;;11.70;7.20;;;;;;;10.50;100.00;98904.66;5019034;28;20222;-70
2022/10/27 05:38:28;;;;;;;15.53;7.43;;;;;;;10.51;100.00;98893.78;5019364;28;20206;-70
2022/10/27 05:40:58;;;;;;;14.53;8.23;;;;;;;10.52;100.00;98892.81;5019407;28;20226;-70
2022/10/27 05:43:25;;;;;;;13.27;8.40;;;;;;;10.48;100.00;98899.53;5019764;28;20211;-70
2022/10/27 05:45:51;;;;;;;11.70;8.80;;;;;;;10.46;100.00;98885.59;5019321;28;20202;-70
2022/10/27 05:48:18;;;;;;;13.87;7.87;;;;;;;10.43;100.00;98895.81;5019249;28;20207;-70
2022/10/27 05:50:44;;;;;;;11.37;8.43;;;;;;;10.35;100.00;98886.16;5019223;28;20226;-70
2022/10/27 05:53:11;;;;;;;10.30;7.47;;;;;;;10.41;100.00;98893.34;5018791;28;20236;-69
2022/10/27 05:55:37;;;;;;;12.03;8.37;;;;;;;10.32;100.00;98885.75;5019033;28;20227;-70
2022/10/27 05:58:06;;;;;;;10.90;7.90;;;;;;;10.33;100.00;98884.72;5019011;28;20211;-70
2022/10/27 06:00:35;;;;;;;9.73;8.00;;;;;;;10.34;100.00;98881.88;5019001;28;20232;-70
2022/10/27 06:03:03;;;;;;;13.93;8.30;;;;;;;10.35;100.00;98886.16;5017024;28;20203;-70
2022/10/27 06:05:31;;;;;;;9.50;8.30;;;;;;;10.34;100.00;98884.53;5015882;28;20203;-70
2022/10/27 06:07:58;;;;;;;18.07;9.43;;;;;;;10.35;100.00;98885.34;5015673;28;20210;-70
2022/10/27 06:10:25;;;;;;;14.67;8.73;;;;;;;10.35;100.00;98880.03;5015879;28;20222;-70
2022/10/27 06:12:51;;;;;;;11.33;9.20;;;;;;;10.39;100.00;98883.94;5015614;28;20213;-70
2022/10/27 06:15:18;;;;;;;11.40;9.63;;;;;;;10.42;100.00;98881.69;5015777;28;20234;-70
2022/10/27 06:17:44;;;;;;;11.90;8.67;;;;;;;10.40;100.00;98888.22;5016002;28;20192;-70
2022/10/27 06:20:11;;;;;;;12.37;7.87;;;;;;;10.38;100.00;98891.09;5015617;28;20237;-70
2022/10/27 06:22:37;;;;;;;13.53;9.03;;;;;;;10.36;100.00;98893.13;5015252;28;20294;-70
2022/10/27 06:25:04;;;;;;;12.93;9.00;;;;;;;10.36;100.00;98903.75;5015573;28;20209;-69
2022/10/27 06:27:31;;;;;;;15.60;9.03;;;;;;;10.42;100.00;98907.47;5015629;28;20210;-68
2022/10/27 06:29:57;;;;;;;13.83;9.03;;;;;;;10.44;100.00;98906.25;5015554;28;20217;-69
2022/10/27 06:32:24;;;;;;;12.70;9.37;;;;;;;10.47;100.00;98913.00;5015311;28;20203;-69
2022/10/27 06:34:50;;;;;;;14.10;9.80;;;;;;;10.48;100.00;98909.34;5015082;28;20245;-70
2022/10/27 06:37:16;;;;;;;11.67;8.90;;;;;;;10.50;100.00;98918.75;5015192;28;20685;-70
2022/10/27 06:39:43;;;;;;;13.20;9.70;;;;;;;10.53;100.00;98920.19;5014988;28;20566;-71
2022/10/27 06:42:09;;;;;;;11.80;9.60;;;;;;;10.59;100.00;98922.06;5014807;28;20570;-70
2022/10/27 06:44:35;;;;;;;14.33;8.67;;;;;;;10.60;100.00;98924.50;5014915;28;20574;-71
2022/10/27 06:47:02;;;;;;;12.43;9.00;;;;;;;10.62;100.00;98926.97;5015270;28;20575;-71
2022/10/27 06:49:28;;;;;;;14.63;9.43;;;;;;;10.64;100.00;98938.25;5015221;28;20210;-71
2022/10/27 06:51:54;;;;;;;14.63;9.07;;;;;;;10.69;100.00;98936.63;5015004;28;20223;-71
2022/10/27 06:54:21;;;;;;;13.73;9.40;;;;;;;10.71;100.00;98934.59;5014755;28;20210;-71
2022/10/27 06:56:47;;;;;;;11.97;8.60;;;;;;;10.74;100.00;98944.03;5014367;28;20230;-70
2022/10/27 06:59:14;;;;;;;10.70;8.97;;;;;;;10.74;100.00;98933.38;5014634;28;20692;-71
2022/10/27 07:01:40;;;;;;;14.43;8.70;;;;;;;10.78;100.00;98932.78;5014543;28;20683;-71
2022/10/27 07:04:06;;;;;;;12.33;8.67;;;;;;;10.81;100.00;98932.38;5014880;28;20207;-71
2022/10/27 07:06:33;;;;;;;13.97;9.03;;;;;;;10.84;100.00;98932.00;5014483;28;20689;-71
2022/10/27 07:08:59;;;;;;;14.30;8.13;;;;;;;10.88;100.00;98930.59;5014798;28;20206;-71
2022/10/27 07:11:27;;;;;;;14.97;8.50;;;;;;;10.86;100.00;98927.28;5014852;28;20238;-70
2022/10/27 07:13:54;;;;;;;15.53;8.17;;;;;;;10.86;100.00;98919.31;5013890;28;20211;-71
2022/10/27 07:16:21;;;;;;;13.63;7.40;;;;;;;10.91;100.00;98932.03;5013111;28;20261;-71
2022/10/27 07:18:48;;;;;;;14.27;8.73;;;;;;;10.96;100.00;98926.91;5014601;28;20582;-71
2022/10/27 07:21:15;;;;;;;9.00;7.07;;;;;;;10.95;100.00;98934.06;5014787;28;20224;-71
2022/10/27 07:23:42;;;;;;;11.43;7.20;;;;;;;10.93;100.00;98936.13;5014661;28;20210;-71
2022/10/27 07:26:08;;;;;;;11.60;7.90;;;;;;;10.95;100.00;98931.41;5014815;28;20240;-71
2022/10/27 07:28:34;;;;;;;11.73;8.17;;;;;;;10.95;100.00;98938.59;5014557;28;20701;-71
2022/10/27 07:31:01;;;;;;;16.77;8.13;;;;;;;11.02;100.00;98944.72;5014560;28;20230;-71
2022/10/27 07:33:27;;;;;;;9.47;8.03;;;;;;;11.05;100.00;98942.47;5014110;28;20657;-71
2022/10/27 07:35:53;;;;;;;11.20;8.50;;;;;;;11.04;100.00;98940.84;5014473;28;20601;-71
2022/10/27 07:38:20;;;;;;;13.33;8.30;;;;;;;11.13;100.00;98938.03;5014484;28;20230;-71
2022/10/27 07:40:47;;;;;;;10.47;7.63;;;;;;;11.11;100.00;98940.88;5014398;28;20238;-71
2022/10/27 07:43:13;;;;;;;12.87;6.70;;;;;;;11.21;100.00;98941.31;5014370;28;20210;-71
2022/10/27 07:45:41;;;;;;;10.00;6.93;;;;;;;11.27;100.00;98937.03;5014443;28;20207;-71
2022/10/27 07:48:12;;;;;;;10.47;7.43;;;;;;;11.34;100.00;98951.97;5014028;28;20647;-71
2022/10/27 07:50:39;;;;;;;9.77;6.70;;;;;;;11.41;100.00;98944.00;5014226;28;20231;-71
2022/10/27 07:53:06;;;;;;;10.10;6.37;;;;;;;11.47;100.00;98946.69;5014201;28;20210;-71
2022/10/27 07:55:35;;;;;;;10.27;6.73;;;;;;;11.53;100.00;98940.53;5013898;28;20702;-71
2022/10/27 07:58:03;;;;;;;10.13;6.73;;;;;;;11.62;100.00;98946.53;5014160;28;20226;-71
2022/10/27 08:00:31;;;;;;;8.93;6.77;;;;;;;11.58;100.00;98947.94;5013549;28;20694;-71
2022/10/27 08:03:02;;;;;;;11.30;7.10;;;;;;;11.65;100.00;98949.59;5014590;28;20218;-71
2022/10/27 08:05:30;;;;;;;15.73;7.13;;;;;;;11.73;100.00;98956.56;5013657;28;20680;-71
2022/10/27 08:08:05;;;;;;;9.70;6.90;;;;;;;11.79;100.00;98963.72;5013887;28;20208;-71
2022/10/27 08:10:33;;;;;;;13.80;6.87;;;;;;;11.82;100.00;98969.50;5013958;28;20568;-71
2022/10/27 08:13:00;;;;;;;11.77;6.80;;;;;;;11.82;100.00;98974.00;5014101;28;20209;-71
2022/10/27 08:15:26;;;;;;;8.37;6.30;;;;;;;11.89;100.00;98978.28;5013668;28;20233;-71
2022/10/27 08:18:00;;;;;;;8.47;6.40;;;;;;;11.92;100.00;98977.91;5013608;28;20212;-71
2022/10/27 08:20:30;;;;;;;9.60;6.67;;;;;;;11.96;100.00;98976.47;5014066;28;20245;-71
2022/10/27 08:23:04;;;;;;;10.93;6.10;;;;;;;12.18;100.00;98979.72;5013523;28;20211;-71
2022/10/27 08:25:31;;;;;;;9.10;6.20;;;;;;;12.23;100.00;98980.75;5013492;28;20186;-71
2022/10/27 08:27:58;;;;;;;8.97;6.10;;;;;;;12.21;100.00;98985.47;5013249;28;20217;-71
2022/10/27 08:30:28;;;;;;;7.63;6.37;;;;;;;12.26;100.00;98987.53;5013410;28;20239;-71
2022/10/27 08:32:59;;;;;;;6.80;6.00;;;;;;;12.31;100.00;98985.88;5013568;28;20220;-71
2022/10/27 08:35:28;;;;;;;10.23;7.07;;;;;;;12.70;100.00;98980.44;5013072;28;20226;-71
2022/10/27 08:38:01;;;;;;;8.90;6.27;;;;;;;12.85;100.00;98973.00;5013596;28;20213;-71
2022/10/27 08:40:55;;;;;;;8.93;6.03;;;;;;;12.87;100.00;98978.97;5013448;28;20245;-71
2022/10/27 08:43:37;;;;;;;6.70;6.00;;;;;;;12.83;100.00;98967.06;5013150;28;20201;-71
2022/10/27 08:46:13;;;;;;;11.43;6.80;;;;;;;13.01;100.00;98969.91;5013100;28;20187;-71
2022/10/27 08:48:42;;;;;;;11.30;6.60;;;;;;;13.14;100.00;98966.34;5013365;28;20201;-71
2022/10/27 08:51:15;;;;;;;10.60;6.37;;;;;;;13.25;100.00;98966.47;5013326;28;20232;-71
2022/10/27 08:53:44;;;;;;;9.87;6.37;;;;;;;13.28;100.00;98966.06;5013214;28;20640;-71
2022/10/27 08:56:11;;;;;;;11.70;6.30;;;;;;;13.20;100.00;98971.66;5013116;28;20229;-71
2022/10/27 08:58:46;;;;;;;9.73;5.67;;;;;;;13.49;100.00;98967.59;5013411;28;20206;-71
2022/10/27 09:01:18;;;;;;;9.80;6.10;;;;;;;13.61;100.00;98974.69;5013451;28;20248;-71
2022/10/27 09:03:54;;;;;;;10.53;5.77;;;;;;;13.64;100.00;98979.63;5013477;28;20217;-71
2022/10/27 09:06:24;;;;;;;11.03;5.63;;;;;;;13.73;100.00;98983.66;5013034;28;20206;-71
2022/10/27 09:09:03;;;;;;;12.77;6.13;;;;;;;13.81;100.00;98978.06;5013329;28;20201;-71
2022/10/27 09:11:50;;;;;;;13.47;6.73;;;;;;;13.87;100.00;98974.50;5012764;28;20241;-71
2022/10/27 09:14:27;;;;;;;10.80;6.53;;;;;;;14.10;100.00;98972.06;5013437;28;20202;-71
2022/10/27 09:17:03;;;;;;;14.73;6.40;;;;;;;14.29;100.00;98970.28;5012937;28;20237;-71
2022/10/27 09:19:35;;;;;;;14.73;6.70;;;;;;;14.31;100.00;98970.88;5013881;28;20194;-72
2022/10/27 09:22:05;;;;;;;13.70;6.00;;;;;;;14.47;100.00;98971.09;5012819;28;20595;-72
2022/10/27 09:24:37;;;;;;;14.03;6.20;;;;;;;14.55;100.00;98968.16;5013292;28;20337;-72
2022/10/27 09:27:04;;;;;;;11.80;5.60;;;;;;;14.56;100.00;98972.47;5011989;28;20194;-72
2022/10/27 09:29:35;;;;;;;9.23;6.03;;;;;;;14.67;100.00;98971.75;5013302;28;20546;-71
2022/10/27 09:32:11;;;;;;;11.13;5.63;;;;;;;14.71;100.00;98972.09;5013200;28;20223;-71
2022/10/27 09:34:46;;;;;;;9.73;5.10;;;;;;;15.09;100.00;98973.50;5013149;28;20191;-71
2022/10/27 09:37:14;;;;;;;10.53;5.67;;;;;;;15.13;100.00;98971.19;5014295;28;20572;-72
2022/10/27 09:39:47;;;;;;;9.73;5.97;;;;;;;15.17;100.00;98962.47;5016413;28;20214;-72
2022/10/27 09:42:14;;;;;;;9.87;5.73;;;;;;;15.39;100.00;98966.34;5016593;28;20207;-71
2022/10/27 09:45:00;;;;;;;11.23;5.97;;;;;;;15.66;100.00;98964.91;5016504;28;20207;-71
2022/10/27 09:47:31;;;;;;;12.37;5.73;;;;;;;15.67;100.00;98960.34;5016206;28;20557;-71
2022/10/27 09:49:59;;;;;;;9.03;5.63;;;;;;;15.72;100.00;98963.16;5016466;28;20191;-71
2022/10/27 09:52:41;;;;;;;6.07;5.33;;;;;;;15.80;100.00;98957.47;5016572;28;20202;-71
2022/10/27 09:55:08;;;;;;;8.83;6.50;;;;;;;15.86;100.00;98951.16;5015331;28;20194;-70
2022/10/27 09:57:36;;;;;;;12.50;6.80;;;;;;;15.93;100.00;98949.22;5016078;28;20233;-72
2022/10/27 10:00:15;;;;;;;10.53;6.53;;;;;;;16.06;100.00;98951.69;5015749;28;20241;-70
2022/10/27 10:03:06;;;;;;;13.63;6.60;;;;;;;16.17;100.00;98957.06;5016194;28;20245;-70
2022/10/27 10:05:37;;;;;;;10.53;5.90;;;;;;;16.51;100.00;98952.75;5014802;28;20214;-70
2022/10/27 10:08:19;;;;;;;9.47;5.43;;;;;;;16.51;100.00;98958.94;4998430;28;20187;-70
2022/10/27 10:11:02;;;;;;;13.50;6.17;;;;;;;16.42;100.00;98954.16;5015752;28;20736;-71
2022/10/27 10:13:31;;;;;;;13.13;6.27;;;;;;;16.69;99.40;98955.31;5015567;28;20214;-72
2022/10/27 10:16:10;;;;;;;8.80;6.57;;;;;;;16.58;100.00;98959.63;5015603;28;20233;-71
2022/10/27 10:18:38;;;;;;;14.83;6.27;;;;;;;16.86;98.98;98956.19;5014822;28;20214;-71
2022/10/27 10:21:07;;;;;;;14.07;5.93;;;;;;;16.96;98.30;98951.84;5015910;28;20253;-72
2022/10/27 10:23:46;;;;;;;10.97;6.73;;;;;;;17.14;97.48;98958.94;5015790;28;20210;-72
2022/10/27 10:26:21;;;;;;;13.03;6.77;;;;;;;17.22;95.27;98954.00;5014487;28;20634;-72
2022/10/27 10:28:51;;;;;;;13.83;6.93;;;;;;;17.25;95.70;98947.31;5015679;28;20194;-72
2022/10/27 10:31:25;;;;;;;9.53;7.33;;;;;;;17.47;96.46;98946.41;5015530;28;20316;-73
2022/10/27 10:33:53;;;;;;;13.77;6.60;;;;;;;17.59;92.64;98941.81;5015171;28;20187;-72
2022/10/27 10:36:27;;;;;;;12.27;6.63;;;;;;;17.66;92.37;98938.97;5015945;28;20701;-72
2022/10/27 10:38:56;;;;;;;12.60;6.73;;;;;;;17.81;91.01;98933.84;5015023;28;20277;-72
2022/10/27 10:41:23;;;;;;;10.93;5.73;;;;;;;17.98;90.76;98935.50;5015174;28;20281;-72
2022/10/27 10:44:08;;;;;;;11.63;5.50;;;;;;;18.01;91.09;98936.88;5016109;28;20222;-72
2022/10/27 10:46:36;;;;;;;10.73;4.70;;;;;;;18.11;91.63;98934.34;5015176;28;20619;-72
2022/10/27 10:49:02;;;;;;;8.13;4.60;;;;;;;18.23;89.82;98941.25;5012628;28;20213;-72
2022/10/27 10:51:35;;;;;;;9.53;4.43;;;;;;;18.44;87.69;98924.38;5014948;28;20226;-72
2022/10/27 10:54:09;;;;;;;9.40;4.53;;;;;;;18.22;87.49;98920.78;5015089;28;20230;-72
2022/10/27 10:56:37;;;;;;;7.10;4.23;;;;;;;18.33;85.90;98922.59;5014916;28;20221;-72
2022/10/27 10:59:10;;;;;;;9.73;4.60;;;;;;;18.60;86.17;98926.19;5014668;28;20207;-72
2022/10/27 11:01:41;;;;;;;7.53;4.57;;;;;;;18.58;85.28;98924.81;5015046;28;20230;-72
2022/10/27 11:04:11;;;;;;;12.90;4.77;;;;;;;18.57;86.93;98925.88;5014770;28;20207;-72
2022/10/27 11:06:37;;;;;;;6.77;3.83;;;;;;;18.75;85.95;98918.34;5014854;28;20207;-72
2022/10/27 11:09:04;;;;;;;8.93;4.63;;;;;;;18.51;85.41;98925.00;5015847;28;20213;-72
2022/10/27 11:11:45;;;;;;;11.37;4.47;;;;;;;18.36;86.20;98913.19;5014854;28;20231;-72
2022/10/27 11:14:15;;;;;;;9.83;4.17;;;;;;;18.64;85.09;98913.88;5014556;28;20201;-72
2022/10/27 11:16:50;;;;;;;12.17;4.67;;;;;;;18.75;84.72;98909.44;5014445;28;20586;-72
2022/10/27 11:19:21;;;;;;;11.07;4.47;;;;;;;18.85;83.32;98914.94;5014854;28;20651;-72
2022/10/27 11:22:03;;;;;;;7.97;4.07;;;;;;;18.80;84.02;98907.63;5014809;28;20234;-72
2022/10/27 11:24:38;;;;;;;9.80;4.13;;;;;;;18.69;84.81;98899.66;5014785;28;20198;-72
2022/10/27 11:27:12;;;;;;;9.43;4.47;;;;;;;18.80;84.27;98896.84;5014551;28;20191;-70
2022/10/27 11:30:15;;;;;;;10.53;4.17;;;;;;;18.93;84.32;98896.47;5014960;28;20283;-71
2022/10/27 11:32:46;;;;;;;9.97;4.53;;;;;;;18.84;85.42;98891.75;5002062;28;20206;-73